Data for 10/04/2010

Time Sea-Level Adjusted Pressure Absolute Pressure Temperature Relative Humidity Dew Point   
(mb) (inHg) (mb) (inHg) (C) (F) (%) (C) (F)
00:05 1015 29.97 844 24.92 17.9 64.1 26 -1.6 29.1
00:10 1015 29.97 844 24.92 17.2 63 26 -2.3 27.8
00:15 1015 29.97 844 24.92 16.7 62.1 26 -2.9 26.9
00:20 1015 29.97 844 24.92 16.6 61.8 28 -2.1 28.2
00:25 1015 29.97 844 24.92 16.4 61.6 26 -3.2 26.3
00:30 1015 29.97 844 24.92 16.7 62 26 -3 26.6
00:35 1015 29.97 844 24.92 16.9 62.3 27 -2 28.4
00:40 1015 29.97 844 24.92 17.1 62.8 25 -3.2 26.3
00:45 1015 29.97 844 24.92 17.4 63.2 24 -3.5 25.7
00:50 1015 29.97 844 24.92 17.7 63.8 24 -3.3 26.1
00:55 1015 29.97 844 24.92 17.8 64.1 23 -3.4 25.8
01:00 1015 29.97 844 24.92 17.8 64.1 24 -2.7 27.1
01:05 1015 29.97 844 24.92 17.6 63.7 25 -2.3 27.9
01:10 1015 29.97 844 24.92 16.7 62.1 28 -1.6 29.2
01:15 1015 29.97 844 24.92 16.3 61.3 27 -2.7 27.2
01:20 1015 29.97 844 24.92 16.8 62.3 26 -2.5 27.5
01:25 1015 29.97 844 24.92 16.9 62.3 25 -2.9 26.7
01:30 1015 29.97 844 24.92 17.1 62.8 26 -2.5 27.5
01:35 1015 29.97 844 24.92 17.3 63.1 26 -2.1 28.2
01:40 1015 29.97 844 24.92 17.1 62.8 26 -2.6 27.2
01:45 1015 29.97 844 24.92 17.2 62.9 28 -1.4 29.5
01:50 1015 29.97 844 24.92 16.8 62.3 26 -2.5 27.6
01:55 1015 29.97 844 24.92 17.4 63.2 30 -0.3 31.5
02:00 1015 29.97 844 24.92 17.1 62.7 29 -0.8 30.5
02:05 1015 29.97 845 24.95 16.8 62.2 26 -2.9 26.8
02:10 1015 29.97 845 24.95 17.8 64 25 -2.3 27.8
02:15 1015 29.97 845 24.95 17.8 64 26 -1.6 29.1
02:20 1016 30 845 24.95 17.4 63.4 27 -1.5 29.3
02:25 1016 30 845 24.95 17.9 64.2 27 -1.1 30
02:30 1016 30 845 24.95 17.6 63.7 24 -2.8 27
02:35 1016 30 845 24.95 17.8 64.1 26 -1.7 28.9
02:40 1016 30 845 24.95 17.5 63.5 27 -1.8 28.8
02:45 1015 29.97 845 24.95 18 64.3 28 -0.9 30.4
02:50 1015 29.97 845 24.95 17.4 63.3 27 -1.6 29
02:55 1015 29.97 845 24.95 17.3 63.1 28 -1.3 29.6
03:00 1015 29.97 845 24.95 17 62.6 28 -1.3 29.7
03:05 1015 29.97 845 24.95 16.9 62.5 29 -1.3 29.7
03:10 1015 29.97 845 24.95 17 62.6 28 -1.5 29.3
03:15 1015 29.97 845 24.95 16.5 61.8 33 0.3 32.5
03:20 1015 29.97 845 24.95 16.3 61.4 31 -0.9 30.4
03:25 1015 29.97 845 24.95 16.8 62.2 29 -1.1 30.1
03:30 1016 30 845 24.95 17.4 63.2 29 -0.7 30.8
03:35 1016 30 845 24.95 17.3 63.1 28 -1.3 29.7
03:40 1016 30 845 24.95 17.5 63.4 28 -1.3 29.7
03:45 1016 30 845 24.95 17.8 64.1 28 -0.8 30.6
03:50 1015 29.97 845 24.95 17.9 64.3 28 -0.5 31.1
03:55 1015 29.97 845 24.95 17.8 64.1 29 -0.2 31.7
04:00 1015 29.97 845 24.95 17.5 63.5 30 0.1 32.1
04:05 1015 29.97 845 24.95 17.3 63.1 31 0.1 32.2
04:10 1015 29.97 845 24.95 17.7 63.9 31 0.4 32.8
04:15 1015 29.97 845 24.95 17 62.7 33 0.8 33.4
04:20 1015 29.97 845 24.95 16.8 62.3 33 0.7 33.2
04:25 1015 29.97 845 24.95 16.6 61.8 35 1.3 34.4
04:30 1016 30 845 24.95 15.9 60.7 33 -0.4 31.3
04:35 1016 30 845 24.95 16.4 61.6 35 1.2 34.2
04:40 1016 30 845 24.95 16.5 61.8 34 0.9 33.6
04:45 1016 30 845 24.95 16.7 62 34 0.6 33.2
04:50 1016 30 845 24.95 17 62.6 32 0.3 32.6
04:55 1016 30 845 24.95 17.7 63.9 32 0.7 33.3
05:00 1016 30 845 24.95 17.7 63.8 32 1 33.9
05:05 1016 30 845 24.95 18.4 65.2 30 0.6 33
05:10 1016 30 845 24.95 17.9 64.3 32 1.1 34
05:15 1016 30 845 24.95 17.4 63.4 32 0.7 33.3
05:20 1016 30 845 24.95 16.8 62.3 36 1.9 35.3
05:25 1016 30 845 24.95 15.8 60.5 38 1.6 34.9
05:30 1016 30 845 24.95 15.6 60.1 37 1 33.7
05:35 1016 30 845 24.95 16.1 60.9 34 0.5 32.8
05:40 1016 30 845 24.95 18.1 64.6 32 1.4 34.6
05:45 1015 29.97 845 24.95 18.3 65 33 1.9 35.4
05:50 1015 29.97 845 24.95 17.6 63.6 34 1.8 35.2
05:55 1015 29.97 845 24.95 16.8 62.3 37 2.3 36.1
06:00 1015 29.97 844 24.92 16 60.8 41 2.7 36.9
06:05 1015 29.97 844 24.92 15.1 59.2 44 2.9 37.2
06:10 1015 29.97 844 24.92 15.5 59.9 40 2.2 35.9
06:15 1015 29.97 844 24.92 16 60.7 41 2.7 36.9
06:20 1015 29.97 845 24.95 15.5 59.9 40 2.1 35.8
06:25 1015 29.97 844 24.92 15.7 60.3 41 2.5 36.5
06:30 1015 29.97 845 24.95 15.6 60.2 40 2.3 36.2
06:35 1015 29.97 844 24.92 16 60.8 39 2.1 35.9
06:40 1015 29.97 844 24.92 16.7 62 37 2 35.6
06:45 1015 29.97 844 24.92 17.2 62.9 35 1.7 35.1
06:50 1015 29.97 844 24.92 17.4 63.3 35 2 35.6
06:55 1015 29.97 844 24.92 17.3 63.1 36 2.1 35.7
07:00 1015 29.97 844 24.92 16.8 62.2 38 2.5 36.6
07:05 1015 29.97 844 24.92 16.5 61.6 38 2.3 36.2
07:10 1015 29.97 844 24.92 16.1 61 40 2.5 36.6
07:15 1015 29.97 844 24.92 15.8 60.5 40 2.4 36.3
07:20 1015 29.97 844 24.92 16.1 60.9 39 2.2 35.9
07:25 1015 29.97 844 24.92 16.6 61.9 39 2.6 36.7
07:30 1015 29.97 844 24.92 16.7 62.1 41 3.4 38.2
07:35 1015 29.97 844 24.92 16.7 62.1 39 2.9 37.2
07:40 1015 29.97 844 24.92 16.7 62 38 2.6 36.6
07:45 1015 29.97 844 24.92 16.9 62.3 38 2.6 36.7
07:50 1015 29.97 844 24.92 17.2 62.9 43 4.6 40.4
07:55 1015 29.97 844 24.92 17.5 63.4 36 2.5 36.5
08:00 1015 29.97 844 24.92 17.5 63.6 36 2.5 36.4
08:05 1015 29.97 845 24.95 17.6 63.7 36 2.4 36.3
08:10 1015 29.97 844 24.92 17.8 64.1 35 2.4 36.3
08:15 1015 29.97 845 24.95 18.1 64.5 37 3.1 37.6
08:20 1015 29.97 845 24.95 18.2 64.7 35 2.8 37
08:25 1015 29.97 845 24.95 18 64.4 36 2.9 37.2
08:30 1015 29.97 845 24.95 18.1 64.6 34 2.1 35.8
08:35 1015 29.97 845 24.95 18.6 65.6 33 2.2 36
08:40 1015 29.97 845 24.95 18.7 65.7 34 2.6 36.8
08:45 1015 29.97 845 24.95 18.7 65.7 34 2.7 36.9
08:50 1015 29.97 844 24.92 19.1 66.4 34 2.9 37.2
08:55 1015 29.97 845 24.95 19 66.2 35 3.4 38.2
09:00 1015 29.97 844 24.92 18.8 65.8 37 3.8 38.8
09:05 1015 29.97 845 24.95 19.1 66.3 36 3.7 38.6
09:10 1015 29.97 845 24.95 19.4 66.9 39 5.1 41.2
09:15 1015 29.97 845 24.95 19.6 67.3 35 3.9 39
09:20 1015 29.97 845 24.95 19.6 67.2 34 3.6 38.4
09:25 1015 29.97 845 24.95 19.5 67 35 3.6 38.6
09:30 1015 29.97 845 24.95 19.7 67.4 35 4 39.1
09:35 1015 29.97 845 24.95 19.8 67.7 36 4.4 39.9
09:40 1015 29.97 845 24.95 19.7 67.4 38 5 41.1
09:45 1015 29.97 845 24.95 19.6 67.3 40 5.9 42.6
09:50 1015 29.97 845 24.95 19.5 67.1 41 6.2 43.1
09:55 1015 29.97 845 24.95 19.3 66.7 40 5.5 41.9
10:00 1015 29.97 845 24.95 19.5 67.1 39 5.2 41.4
10:05 1015 29.97 845 24.95 20.2 68.3 35 4.4 40
10:10 1015 29.97 845 24.95 20.5 68.8 38 5.8 42.5
10:15 1015 29.97 845 24.95 20.6 69.1 37 5.7 42.2
10:20 1015 29.97 845 24.95 20.8 69.4 37 5.6 42.1
10:25 1015 29.97 845 24.95 20.6 69.1 35 5 40.9
10:30 1015 29.97 845 24.95 20.6 69.2 36 5.3 41.5
10:35 1015 29.97 845 24.95 20.7 69.3 37 5.6 42.1
10:40 1015 29.97 844 24.92 21.1 69.9 35 5.3 41.6
10:45 1015 29.97 844 24.92 21.4 70.6 36 6.1 43
10:50 1015 29.97 844 24.92 21.5 70.7 36 5.8 42.5
10:55 1015 29.97 844 24.92 21.3 70.3 34 5.1 41.2
11:00 1015 29.97 844 24.92 22 71.7 32 4.9 40.8
11:05 1015 29.97 844 24.92 22.3 72.1 34 5.8 42.5
11:10 1015 29.97 844 24.92 22.5 72.5 36 6.8 44.2
11:15 1015 29.97 844 24.92 23.2 73.7 33 6.2 43.2
11:20 1015 29.97 844 24.92 23.7 74.6 30 5.4 41.7
11:25 1015 29.97 844 24.92 23.6 74.4 30 5.1 41.2
11:30 1015 29.97 844 24.92 23 73.4 31 5.2 41.4
11:35 1015 29.97 844 24.92 22.7 72.9 33 5.7 42.2
11:40 1015 29.97 844 24.92 21.8 71.3 35 5.7 42.2
11:45 1015 29.97 844 24.92 21.7 71 33 4.9 40.8
11:50 1015 29.97 844 24.92 21.9 71.4 33 5.3 41.5
11:55 1015 29.97 844 24.92 22.1 71.8 33 5.4 41.7
12:00 1015 29.97 844 24.92 22.5 72.4 33 5.4 41.8
12:05 1015 29.97 844 24.92 21.9 71.5 32 4.8 40.7
12:10 1015 29.97 844 24.92 21.6 70.9 33 4.8 40.6
12:15 1015 29.97 844 24.92 21.6 70.8 33 4.6 40.4
12:20 1015 29.97 844 24.92 21.6 70.9 33 4.6 40.4
12:25 1015 29.97 844 24.92 21.9 71.4 32 4.7 40.4
12:30 1015 29.97 844 24.92 22.3 72.2 31 4.4 40
12:35 1015 29.97 844 24.92 22.7 72.8 31 4.9 40.9
12:40 1015 29.97 844 24.92 22.6 72.6 33 5.8 42.5
12:45 1015 29.97 844 24.92 22.9 73.1 31 5 41
12:50 1015 29.97 844 24.92 22.7 72.9 31 5 41
12:55 1015 29.97 844 24.92 22.5 72.4 32 5.1 41.1
13:00 1015 29.97 844 24.92 22.4 72.4 33 5.5 42
13:05 1015 29.97 844 24.92 22.4 72.4 34 6 42.8
13:10 1015 29.97 844 24.92 22.1 71.9 38 7.3 45.2
13:15 1015 29.97 844 24.92 21.6 70.9 39 7.2 45
13:20 1015 29.97 844 24.92 21 69.8 41 7.5 45.5
13:25 1015 29.97 844 24.92 20.8 69.4 42 7.5 45.6
13:30 1015 29.97 844 24.92 20.9 69.6 42 7.5 45.5
13:35 1015 29.97 844 24.92 21.2 70.2 40 7.2 45
13:40 1015 29.97 844 24.92 21.3 70.3 41 7.5 45.5
13:45 1015 29.97 844 24.92 21.4 70.5 39 7 44.6
13:50 1015 29.97 844 24.92 21.5 70.7 34 5.2 41.4
13:55 1014 29.94 844 24.92 21.8 71.2 35 5.8 42.5
14:00 1014 29.94 844 24.92 21.5 70.6 36 5.9 42.7
14:05 1014 29.94 844 24.92 21.2 70.1 38 6.3 43.4
14:10 1014 29.94 843 24.89 21.2 70.2 36 5.7 42.2
14:15 1014 29.94 843 24.89 21.3 70.4 35 5.2 41.4
14:20 1014 29.94 843 24.89 21.3 70.4 35 5.6 42.1
14:25 1014 29.94 843 24.89 21.4 70.6 35 5.4 41.7
14:30 1014 29.94 843 24.89 21.5 70.6 35 5.5 41.9
14:35 1014 29.94 843 24.89 21.5 70.7 34 5.2 41.3
14:40 1014 29.94 843 24.89 21.7 71 35 5.5 41.9
14:45 1014 29.94 843 24.89 22 71.5 34 5.5 41.9
14:50 1014 29.94 843 24.89 21.5 70.8 34 5.4 41.6
14:55 1014 29.94 843 24.89 21.5 70.7 35 5.5 41.8
15:00 1014 29.94 843 24.89 21.5 70.7 34 5.4 41.6
15:05 1014 29.94 843 24.89 21.5 70.8 35 5.7 42.2
15:10 1014 29.94 843 24.89 21.9 71.4 32 4.7 40.5
15:15 1014 29.94 843 24.89 22 71.5 34 5.4 41.7
15:20 1014 29.94 843 24.89 22 71.6 32 4.9 40.8
15:25 1014 29.94 843 24.89 22.3 72.1 32 5.2 41.3
15:30 1014 29.94 843 24.89 22.7 72.8 33 5.6 42.1
15:35 1014 29.94 843 24.89 22.5 72.6 32 5.1 41.2
15:40 1014 29.94 843 24.89 22.3 72.2 31 4.6 40.3
15:45 1014 29.94 843 24.89 22.3 72.2 30 4 39.3
15:50 1014 29.94 843 24.89 22.1 71.7 30 3.9 39
15:55 1014 29.94 843 24.89 21.8 71.2 31 3.9 39
16:00 1014 29.94 843 24.89 21.7 71 31 3.8 38.9
16:05 1014 29.94 843 24.89 21.9 71.4 31 4 39.3
16:10 1014 29.94 843 24.89 21.8 71.3 31 4 39.3
16:15 1014 29.94 843 24.89 21.8 71.2 31 3.9 39
16:20 1014 29.94 843 24.89 21.6 70.9 32 4.4 39.9
16:25 1014 29.94 843 24.89 21.3 70.3 30 3.4 38.1
16:30 1014 29.94 843 24.89 21.5 70.7 30 3.5 38.3
16:35 1014 29.94 843 24.89 21.8 71.2 29 3.2 37.8
16:40 1014 29.94 843 24.89 21.8 71.2 29 3.2 37.8
16:45 1014 29.94 843 24.89 21.7 71 31 3.8 38.9
16:50 1014 29.94 843 24.89 21.7 71 31 3.8 38.9
16:55 1014 29.94 843 24.89 21.6 70.8 31 4.1 39.4
17:00 1014 29.94 843 24.89 21.3 70.4 32 4.1 39.4
17:05 1014 29.94 843 24.89 21.3 70.3 33 4.3 39.8
17:10 1014 29.94 843 24.89 21.4 70.5 33 4.7 40.5
17:15 1014 29.94 843 24.89 21.2 70.2 33 4.5 40.1
17:20 1014 29.94 843 24.89 21.5 70.7 33 4.6 40.3
17:25 1014 29.94 843 24.89 21.9 71.4 31 4 39.3
17:30 1014 29.94 843 24.89 21.8 71.2 32 4.5 40.2
17:35 1014 29.94 843 24.89 21.6 70.8 33 4.7 40.4
17:40 1014 29.94 843 24.89 21.4 70.5 34 5 40.9
17:45 1014 29.94 843 24.89 21 69.8 34 4.7 40.5
17:50 1014 29.94 843 24.89 20.8 69.4 35 4.9 40.8
17:55 1014 29.94 843 24.89 20.6 69 35 4.8 40.7
18:00 1014 29.94 844 24.92 20.6 69 32 3.6 38.6
18:05 1014 29.94 843 24.89 20.7 69.2 33 4.2 39.5
18:10 1014 29.94 843 24.89 20.5 69 34 4.2 39.6
18:15 1014 29.94 843 24.89 20.7 69.2 34 4.3 39.8
18:20 1014 29.94 843 24.89 20.7 69.2 35 4.9 40.8
18:25 1014 29.94 844 24.92 20.3 68.6 36 4.8 40.6
18:30 1014 29.94 844 24.92 20 68.1 35 4.2 39.5
18:35 1014 29.94 844 24.92 20.2 68.4 36 4.7 40.5
18:40 1015 29.97 844 24.92 19.8 67.6 37 4.8 40.6
18:45 1015 29.97 844 24.92 19.4 66.9 37 4.6 40.2
18:50 1015 29.97 844 24.92 19.2 66.5 39 4.9 40.9
18:55 1015 29.97 844 24.92 18.9 66.1 38 4.5 40
19:00 1015 29.97 844 24.92 18.9 66.1 39 4.6 40.4
19:05 1014 29.94 844 24.92 18.8 65.8 39 4.6 40.3
19:10 1014 29.94 844 24.92 18.8 65.8 38 4.4 39.9
19:15 1014 29.94 844 24.92 19 66.1 37 4.2 39.6
19:20 1015 29.97 844 24.92 18.7 65.7 39 4.5 40.1
19:25 1015 29.97 844 24.92 18.8 65.9 37 3.8 38.9
19:30 1015 29.97 844 24.92 19.1 66.4 37 4.3 39.7
19:35 1015 29.97 844 24.92 19.1 66.3 37 4.3 39.7
19:40 1015 29.97 844 24.92 19 66.3 38 4.6 40.2
19:45 1015 29.97 844 24.92 18.4 65.1 43 5.7 42.3
19:50 1015 29.97 844 24.92 17.5 63.5 43 4.9 40.8
19:55 1015 29.97 844 24.92 17.5 63.6 45 5.6 42.2
20:00 1015 29.97 844 24.92 17.2 63 47 5.9 42.6
20:05 1015 29.97 844 24.92 17.3 63.2 48 6.4 43.5
20:10 1015 29.97 844 24.92 17.3 63.2 45 5.5 41.8
20:15 1015 29.97 844 24.92 17.2 62.9 46 5.6 42
20:20 1015 29.97 844 24.92 16.8 62.3 48 5.8 42.4
20:25 1015 29.97 844 24.92 16.6 61.8 48 5.5 42
20:30 1015 29.97 844 24.92 16.7 62 48 5.6 42.1
20:35 1015 29.97 845 24.95 16.8 62.3 48 5.9 42.7
20:40 1015 29.97 845 24.95 17.1 62.7 46 5.4 41.7
20:45 1016 30 845 24.95 17.3 63.1 46 5.7 42.2
20:50 1016 30 845 24.95 17.5 63.5 47 6.2 43.1
20:55 1016 30 845 24.95 17.4 63.4 47 6 42.8
21:00 1016 30 845 24.95 17.4 63.2 45 5.5 41.9
21:05 1016 30 845 24.95 17.5 63.6 46 5.8 42.5
21:10 1016 30 845 24.95 17.4 63.4 46 5.7 42.3
21:15 1016 30 845 24.95 17.4 63.4 46 5.9 42.6
21:20 1016 30 845 24.95 17.3 63.1 46 5.8 42.5
21:25 1016 30 845 24.95 17.5 63.6 46 5.8 42.4
21:30 1016 30 845 24.95 17.4 63.3 46 5.7 42.3
21:35 1016 30 845 24.95 17.4 63.4 47 6 42.8
21:40 1016 30 845 24.95 17.3 63.1 46 5.8 42.5
21:45 1016 30 845 24.95 17.3 63.2 48 6.2 43.2
21:50 1016 30 845 24.95 17.3 63.2 47 5.9 42.6
21:55 1016 30 845 24.95 17.2 62.9 47 5.8 42.5
22:00 1016 30 845 24.95 17.3 63.2 43 4.6 40.3
22:05 1016 30 845 24.95 17.8 64.1 44 5.4 41.8
22:10 1016 30 845 24.95 17.5 63.5 44 5.3 41.5
22:15 1016 30 845 24.95 17.5 63.5 43 5.1 41.1
22:20 1016 30 845 24.95 17.7 63.8 42 4.6 40.3
22:25 1016 30 845 24.95 17.8 64.1 43 5 41.1
22:30 1016 30 845 24.95 17.7 63.8 43 5 41
22:35 1016 30 845 24.95 17.6 63.6 43 5.1 41.2
22:40 1016 30 845 24.95 17.4 63.3 45 5.4 41.7
22:45 1016 30 846 24.98 17.2 63 46 5.5 42
22:50 1016 30 846 24.98 17.1 62.8 45 5.3 41.6
22:55 1016 30 846 24.98 17 62.5 45 5.1 41.1
23:00 1016 30 846 24.98 16.9 62.4 46 5.4 41.7
23:05 1016 30 846 24.98 16.8 62.2 47 5.4 41.8
23:10 1016 30 846 24.98 16.4 61.5 48 5.3 41.6
23:15 1016 30 846 24.98 16.4 61.5 48 5.6 42
23:20 1017 30.03 846 24.98 16.1 60.9 49 5.6 42.1
23:25 1017 30.03 846 24.98 16 60.8 49 5.3 41.5
23:30 1017 30.03 846 24.98 16.3 61.4 49 5.7 42.3
23:35 1017 30.03 846 24.98 16.4 61.5 48 5.3 41.6
23:40 1017 30.03 846 24.98 16.5 61.8 49 5.9 42.5
23:45 1017 30.03 846 24.98 16.1 61 51 6 42.9
23:50 1017 30.03 846 24.98 15.5 59.9 52 5.8 42.5
23:55 1017 30.03 846 24.98 15.1 59.3 55 6.3 43.4
24:00 1017 30.03 846 24.98 14.5 58.2 57 6.3 43.3